Time;durP1;ratioP1;P1;durP2;ratioP2;P2;SDS_P1;SDS_P2;PMS_P1;PMS_P2;Temp;Humidity;BMP_temperature;BMP_pressure;BME280_temperature;BME280_humidity;BME280_pressure;Samples;Min_cycle;Max_cycle;Signal;HPM_P1;HPM_P2
2021/08/14 00:00:53;;;;;;;14.60;3.15;;;16.20;92.40;;;;;;4350318;36;20093;-74
2021/08/14 00:04:55;;;;;;;;;;;16.20;92.40;;;;;;4370017;36;20038;-74
2021/08/14 00:08:57;;;;;;;15.23;2.97;;;16.10;91.40;;;;;;4350571;36;19964;-74
2021/08/14 00:12:59;;;;;;;12.00;3.08;;;16.10;92.20;;;;;;4352094;36;20059;-76
2021/08/14 00:17:01;;;;;;;18.60;3.08;;;16.10;92.40;;;;;;4370085;36;20592;-75
2021/08/14 00:21:04;;;;;;;17.60;3.03;;;16.10;92.50;;;;;;4352487;36;20873;-75
2021/08/14 00:25:06;;;;;;;16.42;3.92;;;16.10;92.60;;;;;;4352481;36;20125;-75
2021/08/14 00:29:09;;;;;;;13.50;3.72;;;16.10;92.60;;;;;;4371072;36;20628;-75
2021/08/14 00:33:13;;;;;;;11.80;3.55;;;16.10;92.70;;;;;;4352210;36;20603;-75
2021/08/14 00:37:15;;;;;;;19.25;3.55;;;16.00;92.60;;;;;;4351716;36;20054;-75
2021/08/14 00:41:17;;;;;;;18.73;3.33;;;16.10;92.60;;;;;;4370663;36;20045;-74
2021/08/14 00:45:19;;;;;;;14.43;3.15;;;16.00;92.60;;;;;;4350398;36;20035;-74
2021/08/14 00:49:21;;;;;;;17.65;3.13;;;16.20;92.80;;;;;;4352445;36;20045;-74
2021/08/14 00:53:24;;;;;;;13.88;2.97;;;16.00;92.70;;;;;;4368987;36;20446;-74
2021/08/14 00:57:26;;;;;;;15.23;3.00;;;16.00;92.80;;;;;;4350690;36;20034;-74
2021/08/14 01:01:28;;;;;;;;;;;16.00;92.90;;;;;;4351735;36;20114;-75
2021/08/14 01:05:31;;;;;;;16.45;3.80;;;15.90;91.80;;;;;;4370172;36;19950;-74
2021/08/14 01:09:33;;;;;;;12.80;3.15;;;15.90;92.90;;;;;;4353233;36;20624;-75
2021/08/14 01:13:35;;;;;;;11.52;2.90;;;15.90;93.00;;;;;;4350704;36;20042;-74
2021/08/14 01:17:37;;;;;;;17.83;3.42;;;15.80;93.00;;;;;;4370212;36;20066;-74
2021/08/14 01:21:47;;;;;;;11.45;3.35;;;15.60;93.10;;;;;;4351152;36;20137;-76
2021/08/14 01:26:10;;;;;;;16.27;3.30;;;15.80;93.20;;;;;;4351920;36;20034;-76
2021/08/14 01:30:13;;;;;;;14.27;2.72;;;15.80;92.90;;;;;;4373408;36;20537;-74
2021/08/14 01:34:20;;;;;;;14.68;3.05;;;15.80;93.20;;;;;;4350946;36;20027;-74
2021/08/14 01:38:23;;;;;;;13.88;3.67;;;15.80;93.40;;;;;;4369353;36;20154;-73
2021/08/14 01:42:25;;;;;;;14.90;3.38;;;15.90;93.50;;;;;;4350819;36;20118;-74
2021/08/14 01:46:36;;;;;;;13.07;3.10;;;15.70;93.50;;;;;;4351821;36;20022;-74
2021/08/14 01:50:38;;;;;;;14.77;3.42;;;15.70;93.70;;;;;;4370255;36;20042;-74
2021/08/14 01:54:41;;;;;;;16.35;3.45;;;15.70;93.60;;;;;;4350018;36;20062;-74
2021/08/14 01:58:43;;;;;;;11.15;3.05;;;15.70;93.70;;;;;;4352507;36;20556;-73
2021/08/14 02:02:48;;;;;;;17.77;3.67;;;15.60;93.80;;;;;;4368842;36;20049;-74
2021/08/14 02:06:51;;;;;;;15.70;3.25;;;15.60;93.90;;;;;;4350715;36;20045;-73
2021/08/14 02:10:52;;;;;;;12.30;3.05;;;15.60;94.10;;;;;;4350099;36;20115;-73
2021/08/14 02:14:54;;;;;;;16.95;3.45;;;15.60;94.20;;;;;;4369848;36;20062;-74
2021/08/14 02:18:58;;;;;;;14.20;3.63;;;15.60;94.20;;;;;;4350232;36;20463;-75
2021/08/14 02:23:00;;;;;;;14.27;3.20;;;15.50;94.30;;;;;;4368603;36;20050;-74
2021/08/14 02:27:03;;;;;;;21.20;3.85;;;15.60;94.50;;;;;;4351463;36;20094;-74
2021/08/14 02:31:06;;;;;;;17.98;4.03;;;15.70;94.50;;;;;;4350205;36;20098;-74
2021/08/14 02:35:08;;;;;;;15.60;3.50;;;15.60;94.70;;;;;;4369554;36;20058;-73
2021/08/14 02:39:10;;;;;;;21.73;4.57;;;15.60;94.90;;;;;;4351535;36;20555;-74
2021/08/14 02:43:14;;;;;;;16.42;3.90;;;15.70;94.90;;;;;;4350573;36;20747;-74
2021/08/14 02:47:16;;;;;;;14.27;3.80;;;15.70;95.00;;;;;;4370033;36;20073;-74
2021/08/14 02:51:18;;;;;;;19.88;4.10;;;15.70;95.00;;;;;;4349969;36;20034;-73
2021/08/14 02:55:20;;;;;;;9.60;3.53;;;15.40;94.80;;;;;;4351476;36;20061;-73
2021/08/14 02:59:22;;;;;;;;;;;15.70;94.90;;;;;;4369660;36;20046;-73
2021/08/14 03:03:24;;;;;;;18.25;4.00;;;15.70;93.80;;;;;;4351670;36;19950;-74
2021/08/14 03:07:26;;;;;;;;;;;15.70;94.80;;;;;;4352082;36;20038;-73
2021/08/14 03:11:28;;;;;;;15.65;3.72;;;15.70;94.10;;;;;;4370200;36;20029;-74
2021/08/14 03:15:30;;;;;;;18.83;4.72;;;15.80;94.90;;;;;;4353202;36;20034;-74
2021/08/14 03:19:32;;;;;;;;;;;15.80;94.90;;;;;;4352229;36;20030;-74
2021/08/14 03:23:34;;;;;;;;;;;15.80;93.80;;;;;;4371092;36;20442;-75
2021/08/14 03:27:36;;;;;;;16.43;4.27;;;15.80;93.80;;;;;;4352515;36;19953;-73
2021/08/14 03:31:38;;;;;;;16.45;3.72;;;15.70;94.90;;;;;;4352585;36;20520;-73
2021/08/14 03:35:40;;;;;;;20.55;4.32;;;15.80;95.10;;;;;;4369137;36;20046;-74
2021/08/14 03:39:42;;;;;;;20.77;3.88;;;15.80;95.30;;;;;;4353248;36;20041;-73
2021/08/14 03:43:44;;;;;;;23.10;5.18;;;15.90;95.40;;;;;;4351622;36;20034;-73
2021/08/14 03:47:46;;;;;;;14.90;3.95;;;15.90;95.50;;;;;;4370432;36;20057;-73
2021/08/14 03:51:48;;;;;;;;;;;15.90;95.90;;;;;;4353030;36;20172;-74
2021/08/14 03:55:50;;;;;;;17.50;4.33;;;15.90;94.80;;;;;;4352094;36;19946;-74
2021/08/14 03:59:52;;;;;;;19.83;5.03;;;15.80;95.60;;;;;;4370500;36;20038;-74
2021/08/14 04:03:54;;;;;;;19.85;5.13;;;15.90;96.00;;;;;;4350722;36;20062;-74
2021/08/14 04:07:56;;;;;;;18.55;4.63;;;15.90;96.00;;;;;;4370627;36;20042;-74
2021/08/14 04:11:58;;;;;;;;;;;15.90;96.40;;;;;;4351614;31;20713;-74
2021/08/14 04:16:00;;;;;;;13.65;4.60;;;15.90;95.90;;;;;;4351837;36;19958;-73
2021/08/14 04:20:03;;;;;;;27.48;5.53;;;15.90;96.40;;;;;;4368846;36;20038;-73
2021/08/14 04:24:05;;;;;;;13.60;4.70;;;16.00;96.60;;;;;;4350437;36;20054;-74
2021/08/14 04:28:07;;;;;;;;;;;16.00;96.50;;;;;;4352005;36;20576;-74
2021/08/14 04:32:09;;;;;;;16.50;5.57;;;16.00;95.80;;;;;;4367191;36;20530;-73
2021/08/14 04:36:10;;;;;;;26.88;5.00;;;16.10;96.50;;;;;;4351302;36;20125;-73
2021/08/14 04:40:15;;;;;;;21.20;5.47;;;16.10;96.70;;;;;;4349707;36;20061;-72
2021/08/14 04:44:17;;;;;;;20.38;5.70;;;16.10;96.90;;;;;;4369592;36;20361;-73
2021/08/14 04:48:19;;;;;;;15.93;4.88;;;15.90;97.20;;;;;;4350816;36;20477;-73
2021/08/14 04:52:20;;;;;;;27.67;6.78;;;16.20;97.00;;;;;;4349419;36;20065;-73
2021/08/14 04:56:23;;;;;;;;;;;16.30;97.50;;;;;;4368880;36;20034;-73
2021/08/14 05:00:25;;;;;;;23.52;6.32;;;16.30;96.40;;;;;;4350585;36;19950;-73
2021/08/14 05:04:27;;;;;;;30.55;5.90;;;16.30;97.00;;;;;;4352722;36;20489;-73
2021/08/14 05:08:29;;;;;;;20.48;5.55;;;16.40;97.50;;;;;;4369013;36;20457;-74
2021/08/14 05:12:31;;;;;;;;;;;16.40;97.30;;;;;;4353455;36;20842;-74
2021/08/14 05:16:34;;;;;;;25.70;6.38;;;16.40;96.50;;;;;;4350101;36;20456;-73
2021/08/14 05:20:36;;;;;;;23.73;6.60;;;16.50;97.50;;;;;;4369141;36;20145;-73
2021/08/14 05:24:38;;;;;;;23.63;6.68;;;16.50;97.70;;;;;;4350280;36;20042;-73
2021/08/14 05:28:40;;;;;;;21.05;6.07;;;16.60;97.70;;;;;;4349602;36;20042;-73
2021/08/14 05:32:41;;;;;;;21.40;5.68;;;16.60;97.90;;;;;;4368526;36;20040;-73
2021/08/14 05:36:43;;;;;;;24.13;6.35;;;16.80;98.00;;;;;;4349943;36;21147;-72
2021/08/14 05:40:45;;;;;;;23.73;5.97;;;16.70;97.90;;;;;;4350213;36;20569;-73
2021/08/14 05:44:47;;;;;;;;;;;16.80;98.20;;;;;;4368615;36;20034;-74
2021/08/14 05:48:49;;;;;;;27.30;6.50;;;16.80;97.50;;;;;;4349068;36;20006;-75
2021/08/14 05:52:51;;;;;;;29.48;6.80;;;16.90;98.40;;;;;;4350487;36;20643;-74
2021/08/14 05:56:54;;;;;;;23.45;6.38;;;17.00;98.40;;;;;;4366023;36;20058;-73
2021/08/14 06:00:55;;;;;;;;;;;17.00;98.40;;;;;;4348905;36;20046;-73
2021/08/14 06:04:57;;;;;;;26.60;6.38;;;16.30;97.60;;;;;;4367598;36;19951;-73
2021/08/14 06:08:59;;;;;;;26.33;6.47;;;17.10;98.20;;;;;;4348196;36;20035;-74
2021/08/14 06:13:01;;;;;;;24.83;6.97;;;17.20;98.30;;;;;;4347769;36;20034;-74
2021/08/14 06:17:04;;;;;;;24.70;5.93;;;17.30;98.20;;;;;;4364763;36;20074;-73
2021/08/14 06:21:06;;;;;;;21.33;5.82;;;17.30;98.30;;;;;;4346472;36;20042;-73
2021/08/14 06:25:09;;;;;;;27.33;5.93;;;17.40;98.40;;;;;;4346752;36;20034;-73
2021/08/14 06:29:11;;;;;;;27.25;6.75;;;17.40;98.50;;;;;;4366900;36;20042;-73
2021/08/14 06:33:13;;;;;;;;;;;17.40;98.60;;;;;;4348450;36;20086;-73
2021/08/14 06:37:15;;;;;;;19.97;6.03;;;17.40;97.70;;;;;;4349794;36;19950;-73
2021/08/14 06:41:17;;;;;;;;;;;17.40;98.40;;;;;;4367436;36;20520;-73
2021/08/14 06:45:19;;;;;;;29.40;6.75;;;17.50;98.30;;;;;;4348796;36;20435;-73
2021/08/14 06:49:21;;;;;;;;;;;17.60;98.70;;;;;;4350264;36;20023;-73
2021/08/14 06:53:23;;;;;;;21.30;6.53;;;17.60;97.90;;;;;;4367441;36;19953;-73
2021/08/14 06:57:24;;;;;;;25.33;6.20;;;17.60;98.60;;;;;;4349678;36;20031;-73
2021/08/14 07:01:27;;;;;;;29.95;5.93;;;17.70;98.60;;;;;;4347286;36;20056;-72
2021/08/14 07:05:29;;;;;;;29.50;6.60;;;17.60;98.40;;;;;;4367097;36;20045;-74
2021/08/14 07:09:31;;;;;;;32.58;7.47;;;17.70;98.70;;;;;;4348750;36;20038;-73
2021/08/14 07:13:33;;;;;;;;;;;17.70;98.70;;;;;;4345542;36;20635;-73
2021/08/14 07:17:35;;;;;;;21.23;6.70;;;17.70;97.50;;;;;;4367238;36;19957;-73
2021/08/14 07:21:37;;;;;;;19.05;6.35;;;17.80;98.70;;;;;;4348630;36;20130;-73
2021/08/14 07:25:39;;;;;;;24.58;6.38;;;17.90;98.90;;;;;;4350549;36;20045;-73
2021/08/14 07:29:41;;;;;;;28.33;6.07;;;17.90;99.00;;;;;;4366688;36;20640;-73
2021/08/14 07:33:43;;;;;;;22.20;5.78;;;17.90;99.00;;;;;;4348234;36;20582;-74
2021/08/14 07:37:50;;;;;;;26.00;6.65;;;18.10;98.90;;;;;;4346524;36;20122;-74
2021/08/14 07:41:51;;;;;;;26.58;7.13;;;18.20;99.10;;;;;;4365970;36;20053;-73
2021/08/14 07:45:53;;;;;;;;;;;18.10;99.20;;;;;;4348251;36;20041;-73
2021/08/14 07:49:55;;;;;;;23.35;6.68;;;18.20;97.90;;;;;;4364628;36;19956;-73
2021/08/14 07:53:57;;;;;;;;;;;18.20;98.70;;;;;;4347265;36;20042;-73
2021/08/14 07:57:59;;;;;;;35.40;6.22;;;18.30;97.60;;;;;;4345240;36;19998;-73
2021/08/14 08:02:01;;;;;;;24.50;6.57;;;18.30;98.70;;;;;;4366604;36;20034;-73
2021/08/14 08:06:04;;;;;;;19.15;5.38;;;18.40;99.10;;;;;;4348968;36;20141;-74
2021/08/14 08:10:09;;;;;;;;;;;18.50;99.10;;;;;;4349719;36;20082;-73
2021/08/14 08:14:11;;;;;;;25.60;6.18;;;18.50;98.10;;;;;;4368156;36;19957;-74
2021/08/14 08:18:13;;;;;;;;;;;18.60;98.70;;;;;;4348592;36;20089;-73
2021/08/14 08:22:15;;;;;;;27.10;5.65;;;18.60;97.80;;;;;;4348945;36;19970;-74
2021/08/14 08:26:17;;;;;;;;;;;18.70;98.50;;;;;;4366067;36;20038;-73
2021/08/14 08:30:20;;;;;;;22.10;5.65;;;18.80;99.80;;;;;;4349981;36;19946;-74
2021/08/14 08:34:24;;;;;;;23.70;5.57;;;18.80;98.40;;;;;;4348271;36;20034;-75
2021/08/14 08:38:27;;;;;;;25.17;5.18;;;18.90;98.40;;;;;;4367517;36;20031;-73
2021/08/14 08:42:29;;;;;;;22.85;5.78;;;18.90;98.50;;;;;;4349387;36;20085;-73
2021/08/14 08:46:31;;;;;;;;;;;18.90;98.50;;;;;;4348805;36;21224;-73
2021/08/14 08:50:35;;;;;;;20.95;5.97;;;18.90;97.80;;;;;;4364556;36;20483;-74
2021/08/14 08:54:38;;;;;;;24.45;5.65;;;19.00;98.40;;;;;;4433744;36;148514;-74
2021/08/14 08:58:40;;;;;;;21.98;5.28;;;19.00;98.50;;;;;;4346179;36;20133;-75
2021/08/14 09:02:44;;;;;;;19.90;5.25;;;19.10;98.50;;;;;;4364214;36;20034;-74
2021/08/14 09:06:47;;;;;;;33.33;5.18;;;19.10;98.50;;;;;;4346327;36;20040;-74
2021/08/14 09:10:50;;;;;;;21.85;6.15;;;19.20;98.50;;;;;;4347005;36;20048;-76
2021/08/14 09:14:52;;;;;;;23.65;6.43;;;19.20;98.40;;;;;;4363853;36;20572;-75
2021/08/14 09:18:55;;;;;;;;;;;19.20;98.50;;;;;;4347371;36;20042;-75
2021/08/14 09:23:02;;;;;;;23.05;4.70;;;19.20;98.00;;;;;;4363395;36;19954;-73
2021/08/14 09:27:08;;;;;;;17.88;4.90;;;19.30;98.20;;;;;;4345644;36;20046;-74
2021/08/14 09:31:12;;;;;;;20.92;4.88;;;19.40;98.60;;;;;;4346549;36;20572;-75
2021/08/14 09:35:25;;;;;;;20.67;5.25;;;19.30;98.30;;;;;;4364450;36;20387;-74
2021/08/14 09:39:27;;;;;;;20.85;5.28;;;19.40;98.20;;;;;;4346407;36;20890;-74
2021/08/14 09:43:34;;;;;;;19.35;5.00;;;19.50;98.40;;;;;;4345863;36;20473;-74
2021/08/14 09:47:36;;;;;;;20.48;5.63;;;19.60;98.30;;;;;;4364907;36;20038;-74
2021/08/14 09:51:38;;;;;;;;;;;19.60;98.20;;;;;;4345016;36;20089;-74
2021/08/14 09:55:40;;;;;;;20.02;5.00;;;19.70;97.70;;;;;;4346860;36;20520;-74
2021/08/14 09:59:45;;;;;;;15.18;4.55;;;19.70;98.10;;;;;;4362969;36;20065;-76
2021/08/14 10:03:47;;;;;;;18.92;4.40;;;19.70;98.30;;;;;;4345657;36;21191;-74
2021/08/14 10:07:50;;;;;;;17.50;4.78;;;19.70;98.30;;;;;;4348283;36;20034;-74
2021/08/14 10:11:52;;;;;;;18.45;4.60;;;19.70;98.10;;;;;;4364213;36;20042;-74
2021/08/14 10:15:56;;;;;;;17.20;5.18;;;19.70;98.10;;;;;;4347491;36;20031;-74
2021/08/14 10:19:58;;;;;;;20.75;5.30;;;19.80;98.10;;;;;;4366478;36;20468;-75
2021/08/14 10:24:00;;;;;;;14.38;4.05;;;19.80;97.90;;;;;;4347531;36;20058;-74
2021/08/14 10:28:06;;;;;;;17.75;4.72;;;19.90;97.70;;;;;;4347313;36;20146;-74
2021/08/14 10:32:08;;;;;;;16.38;4.18;;;20.00;97.70;;;;;;4363614;36;20034;-73
2021/08/14 10:36:15;;;;;;;20.00;4.50;;;20.00;97.60;;;;;;4346560;36;20161;-73
2021/08/14 10:40:19;;;;;;;16.58;4.10;;;20.10;97.60;;;;;;4345528;36;20040;-73
2021/08/14 10:44:50;;;;;;;15.38;4.43;;;20.10;97.50;;;;;;4363351;36;20034;-73
2021/08/14 10:48:53;;;;;;;20.73;4.18;;;20.30;97.30;;;;;;4346707;36;20541;-73
2021/08/14 10:53:11;;;;;;;15.38;3.85;;;20.50;97.30;;;;;;4363167;36;20105;-73
2021/08/14 10:57:13;;;;;;;15.57;4.13;;;20.60;96.90;;;;;;4346086;36;20042;-73
2021/08/14 11:01:18;;;;;;;14.63;3.72;;;20.60;96.70;;;;;;4347873;36;20775;-73
2021/08/14 11:05:27;;;;;;;19.10;3.90;;;20.70;96.60;;;;;;4364291;36;20042;-73
2021/08/14 11:09:31;;;;;;;15.52;3.25;;;20.60;96.60;;;;;;4348023;36;21381;-73
2021/08/14 11:13:36;;;;;;;19.33;3.97;;;20.60;96.50;;;;;;4344917;36;20039;-73
2021/08/14 11:17:38;;;;;;;14.70;3.40;;;20.60;96.50;;;;;;4365988;36;20037;-73
2021/08/14 11:21:45;;;;;;;17.73;3.28;;;20.60;96.70;;;;;;4343293;36;20042;-73
2021/08/14 11:25:47;;;;;;;11.25;3.83;;;20.50;96.60;;;;;;4348262;36;20133;-73
2021/08/14 11:29:56;;;;;;;14.38;3.10;;;20.50;96.60;;;;;;4367028;36;20034;-73
2021/08/14 11:34:12;;;;;;;14.77;3.15;;;20.50;96.50;;;;;;4346657;36;20045;-73
2021/08/14 11:38:14;;;;;;;16.60;4.13;;;20.50;96.60;;;;;;4367381;36;20026;-72
2021/08/14 11:42:16;;;;;;;12.90;3.90;;;20.50;96.70;;;;;;4348705;36;20060;-73
2021/08/14 11:46:22;;;;;;;;;;;20.40;97.10;;;;;;4348157;36;20038;-74
2021/08/14 11:50:31;;;;;;;15.10;3.90;;;20.30;97.00;;;;;;4366440;36;19998;-73
2021/08/14 11:54:33;;;;;;;16.75;4.20;;;20.30;97.10;;;;;;4346968;36;20127;-74
2021/08/14 11:58:35;;;;;;;15.40;4.40;;;20.20;97.10;;;;;;4347303;36;20069;-73
2021/08/14 12:02:37;;;;;;;14.65;3.85;;;20.20;97.10;;;;;;4366221;36;20387;-74
2021/08/14 12:06:39;;;;;;;16.73;3.55;;;20.20;97.20;;;;;;4346099;36;20089;-75
2021/08/14 12:10:41;;;;;;;;;;;20.10;97.30;;;;;;4347874;36;20042;-74
2021/08/14 12:14:43;;;;;;;16.83;4.88;;;20.10;97.10;;;;;;4364725;36;19993;-75
2021/08/14 12:18:48;;;;;;;15.90;3.70;;;20.20;97.20;;;;;;4346794;36;20484;-73
2021/08/14 12:22:50;;;;;;;12.77;3.33;;;20.20;97.10;;;;;;4343774;36;20187;-73
2021/08/14 12:26:53;;;;;;;11.23;3.45;;;20.30;96.90;;;;;;4361615;36;20038;-73
2021/08/14 12:30:57;;;;;;;12.05;2.85;;;20.20;96.70;;;;;;4344441;36;20038;-73
2021/08/14 12:35:23;;;;;;;13.00;2.97;;;20.20;96.50;;;;;;4363669;36;20041;-73
2021/08/14 12:39:51;;;;;;;13.85;3.70;;;20.20;96.50;;;;;;4341650;36;20046;-72
2021/08/14 12:43:53;;;;;;;13.73;3.47;;;20.00;97.10;;;;;;4345266;36;20042;-73
2021/08/14 12:47:55;;;;;;;14.13;3.25;;;19.80;97.60;;;;;;4365043;36;20038;-72
2021/08/14 12:52:06;;;;;;;15.88;3.90;;;19.70;97.70;;;;;;4346125;36;20039;-72
2021/08/14 12:56:12;;;;;;;11.75;3.85;;;19.60;98.00;;;;;;4361726;36;20082;-72
2021/08/14 13:00:14;;;;;;;9.90;3.55;;;19.30;98.30;;;;;;4346916;36;20737;-72
2021/08/14 13:04:16;;;;;;;10.93;3.20;;;19.30;98.60;;;;;;4343857;36;20130;-72
2021/08/14 13:08:19;;;;;;;;;;;19.20;98.90;;;;;;4360373;36;20611;-72
2021/08/14 13:12:21;;;;;;;8.65;3.22;;;19.20;98.20;;;;;;4342988;36;19955;-72
2021/08/14 13:16:23;;;;;;;;;;;19.30;99.20;;;;;;4342497;36;20038;-72
2021/08/14 13:20:26;;;;;;;10.63;2.50;;;19.40;98.10;;;;;;4362630;36;19947;-71
2021/08/14 13:24:28;;;;;;;10.52;3.20;;;19.70;98.60;;;;;;4341997;36;20038;-72
2021/08/14 13:28:30;;;;;;;;;;;19.90;98.70;;;;;;4343373;36;20046;-72
2021/08/14 13:32:32;;;;;;;9.02;2.95;;;20.10;98.00;;;;;;4359651;36;19951;-72
2021/08/14 13:36:34;;;;;;;10.13;2.70;;;20.40;97.50;;;;;;4341129;36;20042;-72
2021/08/14 13:40:37;;;;;;;11.63;2.88;;;20.50;97.50;;;;;;4342080;36;20038;-72
2021/08/14 13:44:39;;;;;;;12.85;3.30;;;20.60;97.30;;;;;;4360269;36;20043;-72
2021/08/14 13:49:00;;;;;;;12.60;3.03;;;20.70;97.30;;;;;;4342361;36;20038;-72
2021/08/14 13:53:02;;;;;;;16.05;4.07;;;20.80;97.50;;;;;;4357460;36;20879;-72
2021/08/14 13:57:05;;;;;;;9.20;2.75;;;20.90;97.00;;;;;;4341801;36;20660;-72
2021/08/14 14:01:08;;;;;;;11.73;3.55;;;20.90;97.10;;;;;;4342702;36;20038;-72
2021/08/14 14:05:10;;;;;;;13.43;3.40;;;20.90;96.60;;;;;;4361362;36;20045;-73
2021/08/14 14:09:13;;;;;;;11.50;3.28;;;20.80;96.80;;;;;;4343447;36;20049;-72
2021/08/14 14:13:15;;;;;;;8.85;2.80;;;20.70;96.60;;;;;;4345891;36;20398;-72
2021/08/14 14:17:17;;;;;;;12.82;3.05;;;20.80;96.80;;;;;;4361138;36;20061;-72
2021/08/14 14:21:19;;;;;;;10.02;3.20;;;20.80;96.20;;;;;;4341818;36;20066;-73
2021/08/14 14:25:21;;;;;;;15.10;3.75;;;20.80;96.40;;;;;;4343033;36;20042;-72
2021/08/14 14:29:23;;;;;;;11.52;2.80;;;20.70;96.00;;;;;;4362183;36;20465;-73
2021/08/14 14:33:25;;;;;;;10.10;2.58;;;20.60;95.80;;;;;;4344208;31;20801;-73
2021/08/14 14:37:27;;;;;;;11.93;2.53;;;20.60;95.50;;;;;;4343189;36;20038;-73
2021/08/14 14:41:30;;;;;;;8.73;2.65;;;20.50;95.60;;;;;;4361824;36;20169;-72
2021/08/14 14:45:32;;;;;;;11.27;2.42;;;20.40;95.50;;;;;;4342844;36;20236;-72
2021/08/14 14:49:36;;;;;;;10.30;2.08;;;20.30;95.30;;;;;;4362320;36;20035;-73
2021/08/14 14:53:37;;;;;;;8.95;2.35;;;20.30;95.10;;;;;;4345054;36;20022;-73
2021/08/14 14:57:39;;;;;;;13.30;3.28;;;20.20;94.80;;;;;;4344319;36;20041;-73
2021/08/14 15:01:41;;;;;;;9.40;2.15;;;20.30;94.80;;;;;;4361003;36;20042;-73
2021/08/14 15:05:48;;;;;;;10.75;2.53;;;20.40;94.80;;;;;;4343523;36;20110;-72
2021/08/14 15:09:50;;;;;;;;;;;20.40;94.50;;;;;;4344090;36;20057;-73
2021/08/14 15:13:52;;;;;;;12.93;3.15;;;20.40;95.00;;;;;;4362138;36;19998;-72
2021/08/14 15:17:54;;;;;;;;;;;20.40;94.80;;;;;;4344047;36;20427;-73
2021/08/14 15:21:57;;;;;;;11.93;3.13;;;20.20;94.80;;;;;;4344894;36;20088;-73
2021/08/14 15:25:59;;;;;;;12.00;2.67;;;20.20;94.70;;;;;;4364461;36;20351;-72
2021/08/14 15:30:01;;;;;;;12.88;2.88;;;20.10;94.80;;;;;;4344346;36;20034;-73
2021/08/14 15:34:02;;;;;;;;;;;20.10;94.70;;;;;;4345822;36;20034;-73
2021/08/14 15:38:05;;;;;;;12.00;2.30;;;20.00;94.60;;;;;;4361384;36;19957;-73
2021/08/14 15:42:09;;;;;;;;;;;20.00;94.70;;;;;;4343481;36;20065;-73
2021/08/14 15:46:11;;;;;;;13.07;2.55;;;20.00;94.90;;;;;;4341934;36;19950;-72
2021/08/14 15:50:14;;;;;;;13.95;2.67;;;20.00;94.50;;;;;;4362941;36;20034;-73
2021/08/14 15:54:16;;;;;;;12.68;2.70;;;20.10;94.50;;;;;;4342000;36;20208;-73
2021/08/14 15:58:18;;;;;;;;;;;20.10;94.50;;;;;;4344961;36;20038;-73
2021/08/14 16:02:20;;;;;;;;;;;20.00;94.90;;;;;;4361965;36;19951;-73
2021/08/14 16:06:22;;;;;;;8.20;2.55;;;19.90;95.30;;;;;;4344009;36;19954;-73
2021/08/14 16:10:25;;;;;;;9.68;2.65;;;19.90;94.90;;;;;;4343778;36;20083;-73
2021/08/14 16:14:26;;;;;;;11.52;2.78;;;19.90;94.50;;;;;;4360294;36;20097;-73
2021/08/14 16:18:28;;;;;;;14.52;2.97;;;19.90;94.60;;;;;;4344769;36;20644;-73
2021/08/14 16:22:30;;;;;;;;;;;19.80;94.80;;;;;;4348324;36;20038;-73
2021/08/14 16:26:32;;;;;;;14.55;2.47;;;20.00;94.80;;;;;;4345225;36;20057;-73
2021/08/14 16:30:34;;;;;;;;;;;19.80;94.80;;;;;;4343871;36;20039;-73
2021/08/14 16:34:36;;;;;;;16.65;2.95;;;19.80;94.80;;;;;;4361963;36;20368;-73
2021/08/14 16:38:38;;;;;;;;;;;19.70;94.40;;;;;;4346184;36;20049;-73
2021/08/14 16:42:40;;;;;;;16.08;2.72;;;19.70;94.70;;;;;;4342903;36;20689;-73
2021/08/14 16:46:42;;;;;;;;;;;19.60;94.90;;;;;;4362127;36;20056;-73
2021/08/14 16:50:44;;;;;;;13.60;3.53;;;19.60;95.10;;;;;;4344091;36;19972;-73
2021/08/14 16:54:46;;;;;;;11.77;3.38;;;19.60;95.20;;;;;;4345731;36;20106;-73
2021/08/14 16:58:48;;;;;;;12.82;3.20;;;19.60;94.90;;;;;;4363571;36;20082;-73
2021/08/14 17:02:50;;;;;;;14.07;2.78;;;19.60;94.90;;;;;;4345598;36;20039;-74
2021/08/14 17:06:57;;;;;;;14.05;2.80;;;19.60;94.60;;;;;;4346881;36;20037;-73
2021/08/14 17:10:59;;;;;;;;;;;19.50;94.70;;;;;;4363494;36;20078;-73
2021/08/14 17:15:01;;;;;;;9.88;2.72;;;19.40;94.90;;;;;;4344891;36;20059;-74
2021/08/14 17:19:04;;;;;;;14.88;2.92;;;19.40;94.90;;;;;;4346603;36;20042;-73
2021/08/14 17:23:06;;;;;;;11.57;2.47;;;19.40;94.80;;;;;;4365812;36;20548;-73
2021/08/14 17:27:08;;;;;;;;;;;19.20;94.80;;;;;;4345267;36;20048;-73
2021/08/14 17:31:10;;;;;;;16.00;2.83;;;19.20;94.90;;;;;;4346377;36;19954;-73
2021/08/14 17:35:12;;;;;;;13.98;3.00;;;19.10;95.10;;;;;;4366521;36;20501;-72
2021/08/14 17:39:15;;;;;;;16.33;2.78;;;19.00;95.10;;;;;;4345296;36;20142;-73
2021/08/14 17:43:17;;;;;;;12.57;2.67;;;19.10;95.10;;;;;;4346298;36;20628;-73
2021/08/14 17:47:39;;;;;;;10.80;2.80;;;19.10;95.10;;;;;;4364222;36;20042;-73
2021/08/14 17:51:44;;;;;;;12.07;3.03;;;19.00;95.10;;;;;;4348166;36;20045;-73
2021/08/14 17:55:46;;;;;;;14.02;3.10;;;18.90;95.30;;;;;;4365451;36;20038;-73
2021/08/14 17:59:48;;;;;;;;;;;18.90;95.10;;;;;;4346517;36;20488;-73
2021/08/14 18:03:50;;;;;;;13.60;3.83;;;18.90;95.10;;;;;;4347531;36;20010;-73
2021/08/14 18:07:52;;;;;;;;;;;18.80;95.20;;;;;;4365145;36;20122;-74
2021/08/14 18:11:54;;;;;;;13.93;2.90;;;18.90;95.20;;;;;;4346336;36;19974;-74
2021/08/14 18:15:56;;;;;;;15.85;3.40;;;18.80;95.20;;;;;;4346867;36;20035;-73
2021/08/14 18:19:59;;;;;;;11.43;2.58;;;18.70;95.20;;;;;;4365110;36;20038;-73
2021/08/14 18:24:01;;;;;;;11.05;3.05;;;18.70;95.30;;;;;;4347094;36;20038;-73
2021/08/14 18:28:03;;;;;;;;;;;18.60;95.30;;;;;;4349967;36;20069;-74
2021/08/14 18:32:14;;;;;;;15.18;3.15;;;18.50;95.40;;;;;;4367033;36;19957;-74
2021/08/14 18:36:16;;;;;;;12.27;2.90;;;18.50;95.50;;;;;;4347191;36;20647;-74
2021/08/14 18:40:18;;;;;;;;;;;18.40;95.50;;;;;;4348531;36;20066;-73
2021/08/14 18:44:20;;;;;;;15.18;3.25;;;18.40;95.40;;;;;;4359326;36;19970;-74
2021/08/14 18:48:22;;;;;;;;;;;18.30;95.50;;;;;;4347672;36;20049;-73
2021/08/14 18:52:24;;;;;;;17.65;3.45;;;18.20;95.40;;;;;;4345970;36;19946;-73
2021/08/14 18:56:26;;;;;;;10.90;3.00;;;18.20;95.60;;;;;;4365487;36;20038;-73
2021/08/14 19:00:28;;;;;;;;;;;18.10;95.60;;;;;;4346216;36;20046;-73
2021/08/14 19:04:31;;;;;;;12.98;3.47;;;18.10;95.40;;;;;;4350064;36;19977;-74
2021/08/14 19:08:34;;;;;;;15.15;2.80;;;18.10;95.60;;;;;;4339670;36;20038;-74
2021/08/14 19:12:41;;;;;;;12.48;3.47;;;17.80;95.50;;;;;;4346332;36;20038;-71
2021/08/14 19:16:43;;;;;;;12.90;3.35;;;18.00;95.60;;;;;;4368108;36;20592;-72
2021/08/14 19:20:46;;;;;;;14.10;3.58;;;17.60;95.50;;;;;;4358540;36;20062;-72
2021/08/14 19:24:48;;;;;;;12.10;2.78;;;17.80;95.60;;;;;;4342249;36;20090;-72
2021/08/14 19:28:50;;;;;;;15.05;4.00;;;17.80;95.70;;;;;;4361837;36;20996;-71
2021/08/14 19:32:52;;;;;;;;;;;17.70;95.70;;;;;;4340753;36;20043;-71
2021/08/14 19:37:12;;;;;;;17.77;3.25;;;17.70;95.80;;;;;;4340300;36;20449;-71
2021/08/14 19:41:13;;;;;;;;;;;17.60;95.80;;;;;;4363130;36;20165;-72
2021/08/14 19:45:15;;;;;;;14.32;2.88;;;17.60;95.50;;;;;;4341390;36;19950;-71
2021/08/14 19:49:17;;;;;;;;;;;17.50;95.90;;;;;;4340220;36;20651;-71
2021/08/14 19:53:20;;;;;;;11.00;3.03;;;17.40;95.70;;;;;;4358011;36;19947;-71
2021/08/14 19:57:22;;;;;;;14.52;3.30;;;17.40;96.00;;;;;;4339432;36;20061;-71
2021/08/14 20:01:27;;;;;;;17.45;3.70;;;17.30;96.00;;;;;;4340306;36;20478;-71
2021/08/14 20:05:29;;;;;;;10.75;3.10;;;17.30;96.10;;;;;;4357180;36;20035;-71
2021/08/14 20:09:31;;;;;;;;;;;17.30;96.10;;;;;;4347127;36;20475;-71
2021/08/14 20:13:33;;;;;;;13.73;3.33;;;17.20;95.80;;;;;;4360073;36;19969;-71
2021/08/14 20:17:35;;;;;;;;;;;17.20;96.10;;;;;;4341486;36;20037;-71
2021/08/14 20:21:37;;;;;;;14.05;3.67;;;17.20;96.00;;;;;;4335981;36;20548;-70
2021/08/14 20:25:39;;;;;;;;;;;17.10;96.10;;;;;;4358688;36;20384;-71
2021/08/14 20:29:41;;;;;;;15.98;4.03;;;17.10;96.00;;;;;;4342635;31;20549;-70
2021/08/14 20:33:43;;;;;;;14.68;3.38;;;17.00;96.10;;;;;;4347869;36;20041;-70
2021/08/14 20:38:05;;;;;;;16.23;3.40;;;17.00;96.20;;;;;;4368055;36;20035;-71
2021/08/14 20:42:07;;;;;;;14.65;3.38;;;17.00;96.20;;;;;;4348647;36;20054;-71
2021/08/14 20:46:09;;;;;;;16.67;3.35;;;16.90;96.20;;;;;;4346669;36;20046;-70
2021/08/14 20:50:11;;;;;;;;;;;16.90;96.30;;;;;;4364458;36;22123;-71
2021/08/14 20:54:33;;;;;;;14.40;3.17;;;16.90;95.80;;;;;;4348519;36;19958;-70
2021/08/14 20:58:35;;;;;;;12.40;2.83;;;16.80;96.20;;;;;;4358813;36;20438;-71
2021/08/14 21:02:40;;;;;;;11.00;2.90;;;16.80;96.30;;;;;;4338183;36;20085;-70
2021/08/14 21:06:43;;;;;;;12.98;3.42;;;17.00;96.40;;;;;;4345237;36;21152;-71
2021/08/14 21:10:44;;;;;;;;;;;16.70;96.30;;;;;;4367818;36;20552;-71
2021/08/14 21:15:07;;;;;;;19.07;4.07;;;16.70;95.90;;;;;;4349514;36;19951;-72